Tiempo atmosférico en la estación meteorológica de El Paso, Santa Cruz de Tenerife (844 m.)



Fecha
DESCASC
Temp. máxima en grados centígrados (hora)
DESCASC
Temp. mínima en grados centígrados (hora)
DESCASC
Temp. media en grados centígrados
DESCASC
Racha de viento máxima en m/sg (hora)
DESCASC
Velocidad máxima media en intervalos de 10 minutos(hora)
DESCASC
Precipitaciones diarias en mm
DESCASC
Precipitaciones de 00:00 a 06:00 en mm
DESCASC
Precipitaciones de 06:00 a 12:00 en mm
DESCASC
Precipitaciones de 12:00 a 18:00 en mm
DESCASC
Precipitaciones de 18:00 a 24:00 en mm
DESCASC
16-11-2019 14.9 (13:00) 11.5 (00:00) 13.2 21.39 (20:30) 11.67 (18:20) 2 1.2 0.8 0 0
15-11-2019 15.4 (11:00) 12.1 (00:00) 13.8 17.5 (00:30) 8.61 (00:40) 1.8 0 0.2 1.4 0.2
14-11-2019 16.8 (11:20) 13.2 (00:00) 15 23.33 (22:20) 10.83 (01:50) 3.6 0 0 1 2.6
13-11-2019 18.6 (00:20) 13.2 (00:00) 15.9 22.5 (09:30) 13.33 (09:40) 0 0 0 0 0
12-11-2019 18.2 (15:10) 13.4 (00:00) 15.8 23.06 (04:30) 13.89 (10:30) 0 0 0 0 0
11-11-2019 18.5 (12:40) 12.9 (07:10) 15.7 27.78 (10:30) 14.72 (10:00) 0 0 0 0 0
10-11-2019 16.8 (12:40) 12.9 (00:00) 14.8 26.11 (21:10) 14.17 (11:30) 3.4 2.2 0 0.2 1
09-11-2019 16 (14:50) 12.4 (00:00) 14.2 21.94 (07:30) 11.39 (21:10) 0.6 0 0 0.2 0.4
08-11-2019 16.9 (11:30) 12.8 (21:50) 14.8 25.56 (21:50) 13.61 (21:30) 14.6 0.4 1 13 0.2
07-11-2019 16.4 (14:30) 12.9 (00:00) 14.6 20.83 (22:50) 9.44 (23:00) 7.8 2.4 1.2 1.4 2.8
06-11-2019 17.5 (13:20) 12.5 (00:00) 15 18.33 (17:30) 10.28 (17:30) 0.6 0.4 0 0 0.2
05-11-2019 20.6 (13:20) 12.4 (00:00) 16.5 13.33 (21:40) 6.39 (03:10) 0.6 0 0 0 0.6
04-11-2019 22.1 (12:10) 13.8 (00:00) 18 7.78 (12:20) 4.72 (12:50) 0 0 0 0 0
03-11-2019 27.7 (12:10) 16.8 (00:00) 22.3 14.72 (00:50) 7.5 (00:50) 0 0 0 0 0
02-11-2019 25.7 (13:30) 22 (00:00) 23.9 20.83 (00:30) 10.28 (01:10) 0 0 0 0 0
01-11-2019 24.5 (14:30) 17.6 (00:00) 21.1 25 (06:10) 12.5 (06:40) 0 0 0 0 0
31-10-2019 24.2 (12:30) 18.3 (23:10) 21.3 22.22 (23:50) 12.5 (23:40) 0 0 0 0 0
30-10-2019 27 (11:50) 16.6 (00:00) 21.8 15.28 (23:30) 6.94 (23:50) 0 0 0 0 0
29-10-2019 26.8 (15:30) 15.9 (00:00) 21.3 6.39 (15:00) 3.89 (14:40) 0 0 0 0 0
28-10-2019 25.8 (13:30) 16.5 (00:00) 21.1 5.83 (13:50) 3.33 (14:10) 0 0 0 0 0
27-10-2019 24.8 (16:30) 17.7 (00:00) 21.3 6.67 (16:50) 4.72 (11:40) 0.6 0.6 0 0 0
26-10-2019 22 (14:30) 14.8 (00:00) 18.4 14.17 (03:30) 5 (03:30) 36 9.8 11 10.2 5
25-10-2019 24.6 (17:30) 9.9 (00:00) 17.3 7.22 (13:10) 3.89 (13:40) 0 0 0 0 0
24-10-2019 20.2 (14:10) 11 (00:00) 15.6 8.61 (05:30) 4.72 (12:20) 0 0 0 0 0
23-10-2019 16.4 (15:30) 10.7 (00:00) 13.5 8.61 (19:30) 4.44 (19:30) 0 0 0 0 0
22-10-2019 17.4 (12:30) 11.4 (06:10) 14.4 12.5 (00:20) 7.22 (00:40) 0.2 0 0 0.2 0
21-10-2019 17.4 (13:00) 12.7 (00:00) 15 13.61 (15:40) 7.78 (12:20) 0.6 0 0 0.6 0
20-10-2019 20.1 (11:10) 11.4 (00:00) 15.8 13.89 (19:30) 6.94 (23:20) 2.2 0 0 1 1.2
19-10-2019 20.8 (12:30) 8.7 (00:00) 14.7 8.33 (16:30) 4.72 (15:30) 0 0 0 0 0
18-10-2019 20 (14:30) 8.9 (00:00) 14.4 6.67 (14:50) 3.89 (14:50) 0 0 0 0 0

Gráficas

Temp. máximas Temp. mínimas Temp. medias Precipitaciones Rachas de viento máximas Velocidades máximas media en intervalos de 10 minutos

Datos horarios

Fecha y hora oficial Temperatura (ºC) Velocidad del viento (km/h) Dirección del viento Racha (km/h) Dirección de racha Precipitación (mm) Presión (hPa) Tendencia (hPa) Humedad (%)
2019-11-16 23:00:00 12.7 26 Este 68 Este 0 -- -- 75
2019-11-16 22:00:00 12.2 39 Este 65 Este 0 -- -- 79
2019-11-16 21:00:00 12.8 37 Este 77 Este 0 -- -- 80
2019-11-16 20:00:00 12.9 30 Este 72 Este 0 -- -- 80
2019-11-16 19:00:00 12.7 40 Este 73 Este 0 -- -- 79
2019-11-16 18:00:00 12.9 38 Este 71 Este 0 -- -- 80
2019-11-16 17:00:00 14 39 Este 61 Este 0 -- -- 69
2019-11-16 16:00:00 14 35 Este 68 Sudeste 0 -- -- 73
2019-11-16 15:00:00 13.9 39 Este 62 Sudeste 0 -- -- 84
2019-11-16 14:00:00 14.1 26 Sudeste 57 Este 0 -- -- 79
2019-11-16 13:00:00 14.9 26 Este 61 Este 0 -- -- 70
2019-11-16 12:00:00 13.6 22 Sudeste 57 Este 0 -- -- 75
2019-11-16 11:00:00 12.6 17 Este 38 Este 0.4 -- -- 79
2019-11-16 10:00:00 12.3 20 Sudeste 63 Sudeste 0.4 -- -- 80
2019-11-16 09:00:00 12.2 18 Este 54 Este 0 -- -- 80
2019-11-16 08:00:00 12.1 16 Este 44 Sudeste 0 -- -- 76
2019-11-16 07:00:00 12 20 Sudeste 47 Sudeste 0 -- -- 80
2019-11-16 06:00:00 12 11 Este 43 Nordeste 0.6 -- -- 84
2019-11-16 05:00:00 11.9 9 Este 44 Este 0.4 -- -- 86
2019-11-16 04:00:00 11.8 15 Este 43 Este 0.2 -- -- 86
2019-11-16 03:00:00 12.4 15 Este 41 Sudeste 0 -- -- 77
2019-11-16 02:00:00 12.5 18 Sudeste 47 Este 0 -- -- 75
2019-11-16 01:00:00 12.4 17 Este 43 Sudeste 0 -- -- 76
2019-11-16 00:00:00 12.6 14 Este 49 Este 0 -- -- 73
2019-11-15 23:00:00 12.3 20 Este 47 Este 0 -- -- 77
2019-11-15 22:00:00 12.6 18 Nordeste 58 Nordeste 0 -- -- 71
2019-11-15 21:00:00 12.4 26 Nordeste 63 Este 0 -- -- 68
2019-11-15 20:00:00 12.1 21 Nordeste 51 Nordeste 0.2 -- -- 80
2019-11-15 19:00:00 12.5 10 Este 49 Este 0 -- -- 78
2019-11-15 18:00:00 12.8 21 Este 49 Este 0 -- -- 79
2019-11-15 17:00:00 13 19 Sudeste 51 Este 0.4 -- -- 83
2019-11-15 16:00:00 14.3 24 Este 48 Este 0.4 -- -- 79
2019-11-15 15:00:00 14.3 23 Este 46 Este 0.2 -- -- 85
2019-11-15 14:00:00 14 26 Este 46 Este 0.2 -- -- 86
2019-11-15 13:00:00 14.8 27 Este 48 Sudeste 0.2 -- -- 81
2019-11-15 12:00:00 14.3 21 Este 55 Sudeste 0.2 -- -- 87
2019-11-15 11:00:00 15.4 23 Este 47 Este 0 -- -- 73
2019-11-15 10:00:00 14.6 19 Sudeste 37 Este 0 -- -- 77
2019-11-15 09:00:00 12.8 8 Este 29 Este 0 -- -- 82
2019-11-15 08:00:00 12.4 2 Este 19 Este 0 -- -- 84
2019-11-15 07:00:00 13.2 8 Este 35 Este 0 -- -- 79
2019-11-15 06:00:00 13.8 16 Nordeste 45 Nordeste 0 -- -- 68
2019-11-15 05:00:00 13.3 24 Este 60 Sudeste 0 -- -- 71
2019-11-15 04:00:00 13.6 21 Este 56 Este 0 -- -- 75
2019-11-15 03:00:00 13.2 19 Este 60 Este 0 -- -- 70
2019-11-15 02:00:00 13.2 22 Este 59 Este 0 -- -- 74
2019-11-15 01:00:00 13.5 27 Este 63 Este 0 -- -- 78
2019-11-15 00:00:00 13.8 28 Este 70 Este 0 -- -- 80
2019-11-14 23:00:00 13.8 28 Este 84 Este 0.2 -- -- 80
2019-11-14 22:00:00 13.6 36 Este 78 Este 0.2 -- -- 84
2019-11-14 21:00:00 13.9 31 Este 65 Este 0 -- -- 85
2019-11-14 20:00:00 13.5 23 Este 53 Sudeste 0.8 -- -- 83
2019-11-14 19:00:00 14 24 Este 48 Este 1.4 -- -- 87
2019-11-14 18:00:00 13.9 18 Este 58 Sudeste 0 -- -- 82
2019-11-14 17:00:00 14.4 18 Este 48 Nordeste 1 -- -- 88
2019-11-14 16:00:00 14.9 23 Este 56 Este 0 -- -- 86
2019-11-14 15:00:00 15.7 24 Este 55 Sudeste 0 -- -- 79
2019-11-14 14:00:00 16.5 31 Este 57 Este 0 -- -- 77
2019-11-14 13:00:00 15.7 33 Este 65 Este 0 -- -- 77
2019-11-14 12:00:00 15.1 35 Este 64 Este 0 -- -- 79
2019-11-14 11:00:00 15.8 33 Este 62 Este 0 -- -- 71
2019-11-14 10:00:00 15.1 30 Este 53 Este 0 -- -- 77
2019-11-14 09:00:00 13.9 27 Este 56 Nordeste 0 -- -- 88
2019-11-14 08:00:00 13.5 28 Este 48 Este 0 -- -- 89
2019-11-14 07:00:00 14.3 28 Este 55 Este 0 -- -- 79
2019-11-14 06:00:00 13.9 30 Este 57 Este 0 -- -- 78
2019-11-14 05:00:00 13.8 32 Este 60 Este 0 -- -- 81
2019-11-14 04:00:00 13.7 23 Este 58 Este 0 -- -- 79
2019-11-14 03:00:00 13.7 34 Este 61 Este 0 -- -- 77
2019-11-14 02:00:00 13.9 34 Este 66 Este 0 -- -- 72
2019-11-14 01:00:00 13.4 30 Este 61 Este 0 -- -- 80
2019-11-14 00:00:00 13.2 36 Este 63 Este 0 -- -- 85
2019-11-13 23:00:00 14.3 36 Este 68 Este 0 -- -- 73
2019-11-13 22:00:00 13.3 31 Este 67 Este 0 -- -- 78
2019-11-13 21:00:00 13.4 41 Este 71 Este 0 -- -- 82
2019-11-13 20:00:00 13.4 48 Este 73 Este 0 -- -- 78
2019-11-13 19:00:00 13.4 30 Este 58 Sudeste 0 -- -- 81
2019-11-13 18:00:00 14 40 Este 71 Este 0 -- -- 83
2019-11-13 17:00:00 14.5 35 Este 63 Este 0 -- -- 82
2019-11-13 16:00:00 15.3 30 Este 54 Este 0 -- -- 81
2019-11-13 15:00:00 16 31 Este 60 Sudeste 0 -- -- 75
2019-11-13 14:00:00 16.5 32 Este 63 Este 0 -- -- 73
2019-11-13 13:00:00 16.2 32 Este 68 Este 0 -- -- 73
2019-11-13 12:00:00 16.1 41 Este 73 Este 0 -- -- 73
2019-11-13 11:00:00 15.9 44 Este 74 Este 0 -- -- 75
2019-11-13 10:00:00 15.7 45 Este 81 Este 0 -- -- 67
2019-11-13 09:00:00 15.2 45 Este 76 Este 0 -- -- 69
2019-11-13 08:00:00 15 41 Este 71 Sudeste 0 -- -- 60
2019-11-13 07:00:00 15.2 40 Este 69 Este 0 -- -- 61
2019-11-13 06:00:00 16.7 40 Este 68 Este 0 -- -- 44
2019-11-13 05:00:00 16.4 37 Este 67 Este 0 -- -- 46
2019-11-13 04:00:00 17.1 38 Este 69 Este 0 -- -- 46
2019-11-13 03:00:00 18 45 Este 72 Este 0 -- -- 45
2019-11-13 02:00:00 18.3 43 Este 81 Este 0 -- -- 42
2019-11-13 01:00:00 18.2 45 Este 76 Sudeste 0 -- -- 38
2019-11-13 00:00:00 18 45 Este 81 Este 0 -- -- 35
2019-11-12 23:00:00 16.5 38 Este 74 Este 0 -- -- 40
2019-11-12 22:00:00 14.5 48 Este 77 Este 0 -- -- 72
2019-11-12 21:00:00 15 48 Este 76 Este 0 -- -- 74
2019-11-12 20:00:00 14.9 41 Este 75 Este 0 -- -- 87
2019-11-12 19:00:00 15.6 37 Este 68 Este 0 -- -- 83
2019-11-12 18:00:00 15.3 37 Este 71 Este 0 -- -- 88
2019-11-12 17:00:00 16.2 39 Este 71 Este 0 -- -- 80
2019-11-12 16:00:00 16.7 41 Este 71 Este 0 -- -- 77
2019-11-12 15:00:00 17.8 39 Este 80 Este 0 -- -- 68
2019-11-12 14:00:00 17.5 41 Este 69 Este 0 -- -- 68
2019-11-12 13:00:00 16.9 41 Este 71 Este 0 -- -- 73
2019-11-12 12:00:00 16.2 42 Este 74 Este 0 -- -- 77
2019-11-12 11:00:00 15.8 42 Este 76 Este 0 -- -- 76
2019-11-12 10:00:00 15.3 44 Este 66 Este 0 -- -- 81
2019-11-12 09:00:00 14.6 41 Este 78 Sudeste 0 -- -- 80
2019-11-12 08:00:00 13.9 47 Este 76 Este 0 -- -- 81
2019-11-12 07:00:00 13.6 44 Este 68 Este 0 -- -- 83
2019-11-12 06:00:00 13.5 35 Este 64 Este 0 -- -- 86
2019-11-12 05:00:00 13.9 33 Sudeste 83 Este 0 -- -- 80
2019-11-12 04:00:00 13.6 28 Sudeste 62 Este 0 -- -- 86
2019-11-12 03:00:00 13.9 35 Este 66 Este 0 -- -- 82
2019-11-12 02:00:00 13.8 40 Este 66 Este 0 -- -- 83
2019-11-12 01:00:00 13.8 37 Este 66 Sudeste 0 -- -- 82
2019-11-12 00:00:00 14.1 40 Este 75 Este 0 -- -- 84
2019-11-11 23:00:00 14 50 Este 84 Este 0 -- -- 85
2019-11-11 22:00:00 14.2 51 Este 86 Este 0 -- -- 84
2019-11-11 21:00:00 14.3 41 Este 88 Este 0 -- -- 84
2019-11-11 20:00:00 14.5 34 Este 72 Sudeste 0 -- -- 81
2019-11-11 19:00:00 14.6 32 Sudeste 71 Sudeste 0 -- -- 83
2019-11-11 18:00:00 14.6 45 Este 76 Este 0 -- -- 81
2019-11-11 17:00:00 16.4 41 Este 79 Este 0 -- -- 70
2019-11-11 16:00:00 15.8 44 Este 69 Este 0 -- -- 75
2019-11-11 15:00:00 16.4 42 Este 73 Este 0 -- -- 75
2019-11-11 14:00:00 16 44 Este 68 Este 0 -- -- 80
2019-11-11 13:00:00 17.9 37 Este 73 Este 0 -- -- 66
2019-11-11 12:00:00 17 38 Este 90 Sudeste 0 -- -- 68
2019-11-11 11:00:00 15.9 46 Este 100 Sudeste 0 -- -- 72
2019-11-11 10:00:00 14.4 53 Este 82 Sudeste 0 -- -- 75
2019-11-11 09:00:00 14.1 45 Este 77 Sudeste 0 -- -- 71
2019-11-11 08:00:00 13.7 45 Este 89 Este 0 -- -- 69
2019-11-11 07:00:00 13 41 Este 80 Este 0 -- -- 80
2019-11-11 06:00:00 13.5 46 Este 80 Este 0 -- -- 72
2019-11-11 05:00:00 13.8 45 Este 89 Este 0 -- -- 75
2019-11-11 04:00:00 13.6 31 Este 63 Este 0 -- -- 81
2019-11-11 03:00:00 14.2 19 Este 60 Este 0 -- -- 75
2019-11-11 02:00:00 14.1 22 Este 73 Este 0 -- -- 75
2019-11-11 01:00:00 13.9 37 Este 68 Sudeste 0 -- -- 79
2019-11-11 00:00:00 14.5 34 Este 80 Este 0 -- -- 75
2019-11-10 23:00:00 13.8 39 Este 78 Este 0 -- -- 74
2019-11-10 22:00:00 14.5 30 Este 94 Este 0 -- -- 75
2019-11-10 21:00:00 14.8 32 Nordeste 85 Este 0.4 -- -- 79
2019-11-10 20:00:00 14.8 39 Este 82 Este 0.4 -- -- 82
2019-11-10 19:00:00 14.8 41 Este 88 Este 0.2 -- -- 81
2019-11-10 18:00:00 14.9 48 Este 81 Este 0.2 -- -- 80
2019-11-10 17:00:00 14.7 42 Este 81 Este 0 -- -- 84
2019-11-10 16:00:00 16 48 Este 93 Este 0 -- -- 72
2019-11-10 15:00:00 16.5 39 Este 80 Este 0 -- -- 73
2019-11-10 14:00:00 16.2 42 Este 81 Este 0 -- -- 74
2019-11-10 13:00:00 15.7 44 Este 89 Este 0 -- -- 79
2019-11-10 12:00:00 15.9 49 Este 94 Este 0 -- -- 68
2019-11-10 11:00:00 15.2 46 Este 87 Este 0 -- -- 70
2019-11-10 10:00:00 14.3 51 Este 85 Este 0 -- -- 73
2019-11-10 09:00:00 13.3 42 Este 81 Este 0 -- -- 79
2019-11-10 08:00:00 13.3 36 Este 87 Este 0 -- -- 75
2019-11-10 07:00:00 13.2 36 Este 75 Este 0 -- -- 88
2019-11-10 06:00:00 13.5 36 Este 81 Norte 0 -- -- 75
2019-11-10 05:00:00 12.9 34 Este 77 Sudeste 0.8 -- -- 87
2019-11-10 04:00:00 13.6 28 Este 66 Nordeste 0 -- -- 83
2019-11-10 03:00:00 13.6 29 Este 71 Sudeste 0.4 -- -- 77
2019-11-10 02:00:00 13.5 22 Este 69 Sudeste 0 -- -- 81
2019-11-10 01:00:00 13 40 Este 80 Este 1 -- -- 81
2019-11-10 00:00:00 13.3 33 Este 64 Este 0.4 -- -- 88
2019-11-09 23:00:00 13.7 21 Este 67 Este 0 -- -- 74
2019-11-09 22:00:00 13.4 31 Este 69 Este 0 -- -- 70
2019-11-09 21:00:00 13.2 30 Este 73 Este 0 -- -- 80
2019-11-09 20:00:00 13.8 28 Este 72 Este 0 -- -- 79
2019-11-09 19:00:00 13.9 17 Nordeste 65 Este 0 -- -- 76
2019-11-09 18:00:00 13.9 28 Este 69 Este 0 -- -- 80
2019-11-09 17:00:00 14.3 31 Este 64 Este 0.2 -- -- 81
2019-11-09 16:00:00 15.3 31 Este 67 Este 0 -- -- 75
2019-11-09 15:00:00 16 30 Este 71 Este 0 -- -- 66
2019-11-09 14:00:00 15.2 36 Este 64 Este 0 -- -- 68
2019-11-09 13:00:00 14.5 27 Este 61 Este 0 -- -- 79
2019-11-09 12:00:00 15 19 Este 69 Este 0 -- -- 79
2019-11-09 11:00:00 14.1 23 Este 56 Este 0 -- -- 82
2019-11-09 10:00:00 14 28 Este 63 Este 0 -- -- 82
2019-11-09 09:00:00 13.4 26 Este 60 Este 0 -- -- 86
2019-11-09 08:00:00 14.1 25 Este 79 Este 0 -- -- 70
2019-11-09 07:00:00 13.4 31 Este 64 Este 0 -- -- 73
2019-11-09 06:00:00 13.2 29 Este 64 Nordeste 0 -- -- 76
2019-11-09 05:00:00 12.5 28 Este 67 Este 0 -- -- 74
2019-11-09 04:00:00 12.8 35 Este 64 Este 0 -- -- 78
2019-11-09 03:00:00 13.1 35 Este 60 Este 0 -- -- 81
2019-11-09 02:00:00 13.4 37 Este 64 Nordeste 0 -- -- 74
2019-11-09 01:00:00 13.3 28 Este 69 Nordeste 0 -- -- 85
2019-11-09 00:00:00 13.2 36 Este 77 Este 0 -- -- 73
2019-11-08 23:00:00 13 40 Este 79 Este 0 -- -- 78
2019-11-08 22:00:00 12.9 46 Este 92 Este 0 -- -- 73
2019-11-08 21:00:00 13.1 44 Este 82 Este 0 -- -- 83
2019-11-08 20:00:00 13.6 41 Este 90 Sudeste 0.2 -- -- 86
2019-11-08 19:00:00 13.6 42 Este 76 Este 0 -- -- 81
2019-11-08 18:00:00 14.3 41 Este 73 Este 0 -- -- 85
2019-11-08 17:00:00 14.3 44 Este 77 Sudeste 0.2 -- -- 84
2019-11-08 16:00:00 14.8 32 Este 60 Este 2.2 -- -- 93
2019-11-08 15:00:00 15.3 20 Este 58 Nordeste 3.6 -- -- 89
2019-11-08 14:00:00 15.3 27 Este 57 Este 4.4 -- -- 92
2019-11-08 13:00:00 15.7 30 Este 56 Este 2.6 -- -- 93
2019-11-08 12:00:00 16.2 27 Este 62 Sudeste 0.4 -- -- 88
2019-11-08 11:00:00 15.8 31 Este 69 Sudeste 0.2 -- -- 82
2019-11-08 10:00:00 16 35 Este 71 Este 0 -- -- 76
2019-11-08 09:00:00 14.7 37 Este 74 Este 0.2 -- -- 80
2019-11-08 08:00:00 14.6 31 Este 63 Este 0 -- -- 81
2019-11-08 07:00:00 14.3 28 Este 69 Este 0.2 -- -- 85
2019-11-08 06:00:00 13.9 36 Este 73 Este 0 -- -- 85
2019-11-08 05:00:00 14.3 46 Este 80 Este 0 -- -- 78
2019-11-08 04:00:00 14.5 40 Este 89 Este 0 -- -- 77
2019-11-08 03:00:00 14.2 35 Este 69 Este 0 -- -- 81
2019-11-08 02:00:00 13.9 36 Este 69 Este 0.2 -- -- 87
2019-11-08 01:00:00 14.3 31 Este 71 Nordeste 0.2 -- -- 85
2019-11-08 00:00:00 14.7 26 Este 68 Sudeste 0.2 -- -- 83
2019-11-07 23:00:00 14.8 34 Este 75 Nordeste 0.2 -- -- 82
2019-11-07 22:00:00 14.6 26 Este 67 Este 0.2 -- -- 83
2019-11-07 21:00:00 14.5 21 Este 62 Este 0.4 -- -- 86
2019-11-07 20:00:00 14.4 29 Este 67 Este 0.4 -- -- 89
2019-11-07 19:00:00 14.8 22 Este 60 Este 1.4 -- -- 89
2019-11-07 18:00:00 15.1 31 Este 60 Este 0.2 -- -- 88
2019-11-07 17:00:00 14.7 31 Este 56 Este 0.2 -- -- 89
2019-11-07 16:00:00 16 28 Este 62 Este 0.2 -- -- 87
2019-11-07 15:00:00 15.7 22 Este 52 Este 0 -- -- 89
2019-11-07 14:00:00 15.5 15 Este 53 Este 0 -- -- 86
2019-11-07 13:00:00 15.1 14 Este 52 Este 0.8 -- -- 87
2019-11-07 12:00:00 14.5 14 Este 58 Nordeste 0.4 -- -- 87
2019-11-07 11:00:00 15.2 17 Este 42 Este 0 -- -- 83
2019-11-07 10:00:00 14.7 14 Este 47 Este 0.2 -- -- 79
2019-11-07 09:00:00 14 8 Nordeste 31 Este 0.4 -- -- 87
2019-11-07 08:00:00 14.1 6 Sudeste 39 Este 0 -- -- 81
2019-11-07 07:00:00 13.2 5 Este 30 Este 0.2 -- -- 88
2019-11-07 06:00:00 13.5 8 Este 33 Sudeste 0.2 -- -- 85
2019-11-07 05:00:00 13.3 13 Este 30 Este 0.2 -- -- 86
2019-11-07 04:00:00 13.5 12 Sudeste 35 Este 0 -- -- 81
2019-11-07 03:00:00 13.1 7 Sudeste 36 Este 0.6 -- -- 87
2019-11-07 02:00:00 13.1 10 Este 37 Este 1.2 -- -- 88
2019-11-07 01:00:00 13.6 16 Este 40 Este 0.2 -- -- 84
2019-11-07 00:00:00 13.7 18 Este 41 Este 0 -- -- 79
2019-11-06 23:00:00 13.4 16 Este 42 Norte 0 -- -- 79
2019-11-06 22:00:00 13.7 16 Este 49 Nordeste 0.2 -- -- 70
2019-11-06 21:00:00 13.4 26 Este 54 Este 0 -- -- 78
2019-11-06 20:00:00 14.1 21 Este 57 Este 0 -- -- 69
2019-11-06 19:00:00 13.9 27 Este 57 Este 0 -- -- 69
2019-11-06 18:00:00 13.9 26 Este 66 Este 0 -- -- 79
2019-11-06 17:00:00 14.7 29 Este 58 Este 0 -- -- 77
2019-11-06 16:00:00 17.1 28 Este 50 Este 0 -- -- 65
2019-11-06 15:00:00 16.9 25 Este 52 Este 0 -- -- 65
2019-11-06 14:00:00 16.7 20 Sudeste 50 Sudeste 0 -- -- 71
2019-11-06 13:00:00 16.9 23 Este 47 Sudeste 0 -- -- 71
2019-11-06 12:00:00 16.6 26 Este 49 Este 0 -- -- 67
2019-11-06 11:00:00 16.1 28 Este 51 Este 0 -- -- 64
2019-11-06 10:00:00 15.2 23 Este 50 Este 0 -- -- 66
2019-11-06 09:00:00 12.8 23 Sudeste 53 Este 0 -- -- 83
2019-11-06 08:00:00 13 29 Este 50 Este 0 -- -- 77
2019-11-06 07:00:00 12.7 26 Este 49 Este 0 -- -- 80
2019-11-06 06:00:00 12.8 19 Este 41 Sudeste 0 -- -- 80
2019-11-06 05:00:00 13.1 26 Este 44 Este 0 -- -- 84
2019-11-06 04:00:00 14.4 20 Este 47 Este 0 -- -- 76
2019-11-06 03:00:00 13.5 27 Este 49 Este 0 -- -- 78
2019-11-06 02:00:00 13.5 23 Este 57 Sudeste 0.2 -- -- 89
2019-11-06 01:00:00 14.3 25 Este 46 Este 0.2 -- -- 90
2019-11-06 00:00:00 14.5 23 Este 41 Este 0.2 -- -- 89
2019-11-05 23:00:00 15 21 Este 42 Este 0.2 -- -- 88
2019-11-05 22:00:00 15.1 21 Este 48 Este 0.2 -- -- 91
2019-11-05 21:00:00 15.9 18 Este 42 Este 0 -- -- 87
2019-11-05 20:00:00 16.2 18 Este 40 Este 0 -- -- 78
2019-11-05 19:00:00 16.3 20 Este 35 Sudeste 0 -- -- 80
2019-11-05 18:00:00 17.6 18 Sudeste 31 Sudeste 0 -- -- 78
2019-11-05 17:00:00 19.4 13 Sudeste 24 Sudeste 0 -- -- 70
2019-11-05 16:00:00 19.9 10 Oeste 24 Oeste 0 -- -- 72
2019-11-05 15:00:00 20.2 13 Oeste 22 Oeste 0 -- -- 73
2019-11-05 14:00:00 19.3 13 Oeste 24 Oeste 0 -- -- 75
2019-11-05 13:00:00 20.2 11 Oeste 27 Oeste 0 -- -- 71
2019-11-05 12:00:00 19.7 12 Oeste 21 Oeste 0 -- -- 74
2019-11-05 11:00:00 19.7 8 Oeste 17 Oeste 0 -- -- 72
2019-11-05 10:00:00 18.8 5 Noroeste 14 Noroeste 0 -- -- 75
2019-11-05 09:00:00 15.5 3 Nordeste 11 Oeste 0 -- -- 87
2019-11-05 08:00:00 12.6 6 Este 10 Este 0 -- -- 91
2019-11-05 07:00:00 12.5 4 Este 10 Nordeste 0 -- -- 90
2019-11-05 06:00:00 13.3 3 Nordeste 9 Este 0 -- -- 90
2019-11-05 05:00:00 13.6 5 Este 9 Este 0 -- -- 90
2019-11-05 04:00:00 15.3 3 Norte 39 Sudeste 0 -- -- 73
2019-11-05 03:00:00 14.3 11 Sudeste 28 Este 0 -- -- 83
2019-11-05 02:00:00 14.3 3 Nordeste 17 Este 0 -- -- 84
2019-11-05 01:00:00 15.7 6 Este 33 Sur 0 -- -- 76
2019-11-05 00:00:00 15.3 12 Sudeste 28 Este 0 -- -- 79
2019-11-04 23:00:00 14.7 3 Este 5 Este 0 -- -- 90
2019-11-04 22:00:00 15.4 3 Nordeste 9 Este 0 -- -- 91
2019-11-04 21:00:00 16.2 3 Norte 9 Sudoeste 0 -- -- 90
2019-11-04 20:00:00 16.3 2 Nordeste 9 Oeste 0 -- -- 88
2019-11-04 19:00:00 17.6 3 Noroeste 12 Oeste 0 -- -- 84
2019-11-04 18:00:00 18.8 4 Noroeste 11 Noroeste 0 -- -- 81
2019-11-04 17:00:00 20.2 8 Oeste 19 Oeste 0 -- -- 76
2019-11-04 16:00:00 21.4 12 Oeste 19 Oeste 0 -- -- 72
2019-11-04 15:00:00 20.9 9 Oeste 22 Oeste 0 -- -- 73
2019-11-04 14:00:00 19.8 4 Oeste 23 Oeste 0 -- -- 76
2019-11-04 13:00:00 19.9 14 Oeste 28 Sudoeste 0 -- -- 75
2019-11-04 12:00:00 21.1 8 Oeste 19 Oeste 0 -- -- 66
2019-11-04 11:00:00 20.2 10 Oeste 17 Oeste 0 -- -- 74
2019-11-04 10:00:00 19.4 15 Oeste 26 Sudoeste 0 -- -- 76
2019-11-04 09:00:00 18 9 Oeste 22 Oeste 0 -- -- 77
2019-11-04 08:00:00 14.9 5 Noroeste 15 Sudoeste 0 -- -- 83
2019-11-04 07:00:00 14 3 Sudeste 10 Sudeste 0 -- -- 69
2019-11-04 06:00:00 15.2 4 Sudeste 12 Norte 0 -- -- 71
2019-11-04 05:00:00 15.6 4 Nordeste 12 Nordeste 0 -- -- 59
2019-11-04 04:00:00 15.8 6 Este 14 Este 0 -- -- 56
2019-11-04 03:00:00 15.5 8 Este 14 Nordeste 0 -- -- 57
2019-11-04 02:00:00 15.6 5 Este 13 Norte 0 -- -- 58
2019-11-04 01:00:00 16.7 5 Este 13 Este 0 -- -- 52
2019-11-04 00:00:00 16.8 5 Sudeste 11 Este 0 -- -- 57
2019-11-03 23:00:00 17.2 4 Este 10 Este 0 -- -- 52
2019-11-03 22:00:00 18.1 2 Este 12 Este 0 -- -- 51
2019-11-03 21:00:00 19 3 Este 7 Este 0 -- -- 53
2019-11-03 20:00:00 19.6 4 Este 8 Sudeste 0 -- -- 54
2019-11-03 19:00:00 21.6 0 Calma 6 Oeste 0 -- -- 58
2019-11-03 18:00:00 24.1 3 Oeste 12 Oeste 0 -- -- 53
2019-11-03 17:00:00 24.7 6 Oeste 17 Oeste 0 -- -- 59
2019-11-03 16:00:00 25.7 10 Oeste 19 Oeste 0 -- -- 55
2019-11-03 15:00:00 25.6 10 Oeste 22 Oeste 0 -- -- 49
2019-11-03 14:00:00 25.5 14 Oeste 23 Oeste 0 -- -- 59
2019-11-03 13:00:00 26.8 7 Sudoeste 34 Oeste 0 -- -- 45
2019-11-03 12:00:00 27.6 11 Noroeste 26 Sudeste 0 -- -- 46
2019-11-03 11:00:00 26.5 11 Nordeste 39 Este 0 -- -- 40
2019-11-03 10:00:00 25.6 18 Este 42 Sudeste 0 -- -- 35
2019-11-03 09:00:00 24.2 14 Este 35 Este 0 -- -- 43
2019-11-03 08:00:00 22.3 16 Este 40 Este 0 -- -- 48
2019-11-03 07:00:00 22.7 13 Este 33 Este 0 -- -- 47
2019-11-03 06:00:00 22.7 17 Este 34 Este 0 -- -- 48
2019-11-03 05:00:00 22.8 14 Este 38 Nordeste 0 -- -- 47
2019-11-03 04:00:00 22.6 18 Este 35 Nordeste 0 -- -- 46
2019-11-03 03:00:00 22.6 14 Este 44 Este 0 -- -- 45
2019-11-03 02:00:00 22.9 19 Este 48 Sudeste 0 -- -- 44
2019-11-03 01:00:00 22.6 20 Este 53 Sudeste 0 -- -- 43
2019-11-03 00:00:00 23.3 24 Este 51 Este 0 -- -- 43
2019-11-02 23:00:00 23.4 25 Este 54 Este 0 -- -- 42
2019-11-02 22:00:00 22.9 30 Este 54 Este 0 -- -- 39
2019-11-02 21:00:00 23.1 29 Este 51 Este 0 -- -- 39
2019-11-02 20:00:00 23.1 31 Este 62 Este 0 -- -- 39
2019-11-02 19:00:00 23.5 32 Este 60 Este 0 -- -- 38
2019-11-02 18:00:00 24 25 Este 55 Nordeste 0 -- -- 38
2019-11-02 17:00:00 24.8 28 Este 56 Este 0 -- -- 38
2019-11-02 16:00:00 25.4 31 Este 57 Este 0 -- -- 38
2019-11-02 15:00:00 24.5 30 Este 65 Sudeste 0 -- -- 40
2019-11-02 14:00:00 25.3 31 Este 62 Sudeste 0 -- -- 41
2019-11-02 13:00:00 25.5 30 Este 58 Este 0 -- -- 39
2019-11-02 12:00:00 24.7 32 Este 57 Este 0 -- -- 42
2019-11-02 11:00:00 24 32 Este 58 Este 0 -- -- 42
2019-11-02 10:00:00 23.6 32 Este 57 Este 0 -- -- 41
2019-11-02 09:00:00 23 29 Este 59 Este 0 -- -- 42
2019-11-02 08:00:00 22 28 Este 62 Este 0 -- -- 42
2019-11-02 07:00:00 22.1 31 Este 66 Este 0 -- -- 41
2019-11-02 06:00:00 22 26 Este 65 Nordeste 0 -- -- 43
2019-11-02 05:00:00 22.3 31 Este 62 Este 0 -- -- 42
2019-11-02 04:00:00 22.3 32 Este 64 Este 0 -- -- 42
2019-11-02 03:00:00 22.3 31 Este 74 Este 0 -- -- 42
2019-11-02 02:00:00 22.2 30 Este 72 Este 0 -- -- 41
2019-11-02 01:00:00 22.4 28 Este 75 Este 0 -- -- 41
2019-11-02 00:00:00 22.4 32 Este 64 Este 0 -- -- 40
2019-11-01 23:00:00 22.6 31 Este 68 Este 0 -- -- 38
2019-11-01 22:00:00 22.7 22 Este 52 Sudeste 0 -- -- 38
2019-11-01 21:00:00 21.9 24 Este 57 Este 0 -- -- 43
2019-11-01 20:00:00 22.2 22 Este 64 Sudeste 0 -- -- 43
2019-11-01 19:00:00 22.4 27 Este 66 Este 0 -- -- 39
2019-11-01 18:00:00 22.8 26 Este 79 Este 0 -- -- 38
2019-11-01 17:00:00 23.2 36 Este 73 Sudeste 0 -- -- 37
2019-11-01 16:00:00 23.8 27 Este 67 Este 0 -- -- 42
2019-11-01 15:00:00 24.2 33 Este 80 Sudeste 0 -- -- 42
2019-11-01 14:00:00 24.3 35 Este 85 Este 0 -- -- 40
2019-11-01 13:00:00 24.3 37 Este 77 Sudeste 0 -- -- 41
2019-11-01 12:00:00 23.5 36 Este 73 Este 0 -- -- 44
2019-11-01 11:00:00 22.4 39 Este 68 Este 0 -- -- 52
2019-11-01 10:00:00 21.5 38 Este 75 Este 0 -- -- 53
2019-11-01 09:00:00 17.9 41 Este 76 Sudeste 0 -- -- 73
2019-11-01 08:00:00 17.9 45 Este 79 Este 0 -- -- 71
2019-11-01 07:00:00 18.5 42 Este 90 Este 0 -- -- 63
2019-11-01 06:00:00 18.2 37 Este 82 Este 0 -- -- 64
2019-11-01 05:00:00 19 42 Este 78 Este 0 -- -- 60
2019-11-01 04:00:00 20.6 41 Este 81 Este 0 -- -- 48
2019-11-01 03:00:00 20 40 Este 74 Este 0 -- -- 48
2019-11-01 02:00:00 19.2 42 Este 77 Este 0 -- -- 57
2019-11-01 01:00:00 19.2 40 Este 81 Sudeste 0 -- -- 60
2019-11-01 00:00:00 19 44 Este 80 Este 0 -- -- 65
2019-10-31 23:00:00 18.7 40 Este 75 Este 0 -- -- 71
2019-10-31 22:00:00 20.5 36 Este 79 Este 0 -- -- 53
2019-10-31 21:00:00 21.5 33 Este 75 Este 0 -- -- 39
2019-10-31 20:00:00 20.4 29 Este 71 Este 0 -- -- 55
2019-10-31 19:00:00 21.2 30 Este 60 Este 0 -- -- 46
2019-10-31 18:00:00 21.6 32 Este 73 Nordeste 0 -- -- 49
2019-10-31 17:00:00 20.9 31 Este 59 Nordeste 0 -- -- 63
2019-10-31 16:00:00 21 29 Este 57 Este 0 -- -- 66
2019-10-31 15:00:00 23.3 34 Este 70 Este 0 -- -- 51
2019-10-31 14:00:00 24.1 32 Este 67 Este 0 -- -- 49
2019-10-31 13:00:00 23.5 30 Este 59 Sudeste 0 -- -- 54
2019-10-31 12:00:00 23.7 28 Este 59 Este 0 -- -- 53
2019-10-31 11:00:00 22.2 30 Este 58 Este 0 -- -- 64
2019-10-31 10:00:00 21.3 35 Este 60 Este 0 -- -- 64
2019-10-31 09:00:00 21.1 31 Este 62 Este 0 -- -- 61
2019-10-31 08:00:00 20.1 34 Este 58 Este 0 -- -- 62
2019-10-31 07:00:00 20.6 30 Este 60 Sudeste 0 -- -- 54
2019-10-31 06:00:00 21 30 Este 52 Este 0 -- -- 53
2019-10-31 05:00:00 21.3 26 Este 56 Este 0 -- -- 52
2019-10-31 04:00:00 22 26 Este 58 Este 0 -- -- 46
2019-10-31 03:00:00 22.3 21 Este 44 Este 0 -- -- 47
2019-10-31 02:00:00 23.1 19 Este 37 Sudeste 0 -- -- 41
2019-10-31 01:00:00 23.5 21 Este 44 Este 0 -- -- 40
2019-10-31 00:00:00 23.7 22 Este 55 Este 0 -- -- 40
2019-10-30 23:00:00 23.9 19 Este 40 Sudeste 0 -- -- 43
2019-10-30 22:00:00 23.3 21 Sudeste 40 Este 0 -- -- 50
2019-10-30 21:00:00 23.6 18 Sudeste 37 Este 0 -- -- 52
2019-10-30 20:00:00 24.2 18 Sudeste 31 Este 0 -- -- 46
2019-10-30 19:00:00 25.7 14 Este 29 Este 0 -- -- 38
2019-10-30 18:00:00 25.2 9 Oeste 28 Este 0 -- -- 48
2019-10-30 17:00:00 26.4 7 Oeste 14 Oeste 0 -- -- 49
2019-10-30 16:00:00 26.9 13 Oeste 22 Oeste 0 -- -- 52
2019-10-30 15:00:00 26.9 12 Oeste 19 Oeste 0 -- -- 51
2019-10-30 14:00:00 26.6 9 Oeste 19 Oeste 0 -- -- 55
2019-10-30 13:00:00 27 10 Oeste 19 Oeste 0 -- -- 52
2019-10-30 12:00:00 27 12 Oeste 18 Oeste 0 -- -- 48
2019-10-30 11:00:00 26.1 6 Oeste 13 Oeste 0 -- -- 46
2019-10-30 10:00:00 25 5 Oeste 10 Este 0 -- -- 49
2019-10-30 09:00:00 20.7 3 Este 10 Este 0 -- -- 63
2019-10-30 08:00:00 17.3 7 Este 10 Este 0 -- -- 69
2019-10-30 07:00:00 16.9 6 Este 10 Este 0 -- -- 69
2019-10-30 06:00:00 17.1 6 Este 12 Este 0 -- -- 70
2019-10-30 05:00:00 16.7 5 Este 9 Este 0 -- -- 72
2019-10-30 04:00:00 17.5 5 Este 9 Sudeste 0 -- -- 69
2019-10-30 03:00:00 18 7 Este 10 Este 0 -- -- 68
2019-10-30 02:00:00 18 7 Este 9 Este 0 -- -- 69
2019-10-30 01:00:00 18.1 7 Este 10 Este 0 -- -- 68
2019-10-30 00:00:00 18.4 7 Este 10 Este 0 -- -- 67
2019-10-29 23:00:00 19 6 Este 10 Nordeste 0 -- -- 66
2019-10-29 22:00:00 19.3 7 Este 12 Nordeste 0 -- -- 64
2019-10-29 21:00:00 19.8 5 Este 10 Este 0 -- -- 63
2019-10-29 20:00:00 20.8 6 Este 10 Este 0 -- -- 61
2019-10-29 19:00:00 22.4 3 Nordeste 6 Este 0 -- -- 59
2019-10-29 18:00:00 25 3 Oeste 16 Oeste 0 -- -- 53
2019-10-29 17:00:00 26.1 12 Oeste 20 Oeste 0 -- -- 51
2019-10-29 16:00:00 26.7 11 Oeste 23 Oeste 0 -- -- 47
2019-10-29 15:00:00 26.7 14 Oeste 23 Oeste 0 -- -- 46
2019-10-29 14:00:00 26.5 12 Oeste 21 Oeste 0 -- -- 47
2019-10-29 13:00:00 26.1 11 Oeste 18 Sudoeste 0 -- -- 50
2019-10-29 12:00:00 25.4 12 Oeste 21 Oeste 0 -- -- 50
2019-10-29 11:00:00 25.1 12 Oeste 18 Oeste 0 -- -- 48
2019-10-29 10:00:00 24.6 0 Calma 8 Sudeste 0 -- -- 52
2019-10-29 09:00:00 20.2 3 Sudeste 6 Sudeste 0 -- -- 68
2019-10-29 08:00:00 16.4 4 Sudeste 8 Sudeste 0 -- -- 76
2019-10-29 07:00:00 15.9 5 Sudeste 9 Sudeste 0 -- -- 77
2019-10-29 06:00:00 16 5 Sudeste 9 Sudeste 0 -- -- 77
2019-10-29 05:00:00 16.3 5 Sudeste 9 Sudeste 0 -- -- 77
2019-10-29 04:00:00 16.7 5 Sudeste 8 Sudeste 0 -- -- 77
2019-10-29 03:00:00 16.6 4 Este 7 Este 0 -- -- 77
2019-10-29 02:00:00 17.2 4 Sudeste 9 Este 0 -- -- 76
2019-10-29 01:00:00 17.5 5 Este 10 Este 0 -- -- 73
2019-10-29 00:00:00 17 6 Este 9 Este 0 -- -- 76
2019-10-28 23:00:00 17.5 5 Este 9 Nordeste 0 -- -- 75
2019-10-28 22:00:00 17.7 5 Este 9 Este 0 -- -- 73
2019-10-28 21:00:00 18.4 2 Este 6 Este 0 -- -- 73
2019-10-28 20:00:00 19.5 5 Este 12 Este 0 -- -- 72
2019-10-28 19:00:00 21.6 0 Calma 8 Noroeste 0 -- -- 66
2019-10-28 18:00:00 23.5 7 Noroeste 16 Oeste 0 -- -- 59
2019-10-28 17:00:00 24.4 9 Oeste 17 Oeste 0 -- -- 59
2019-10-28 16:00:00 25.6 10 Oeste 18 Oeste 0 -- -- 56
2019-10-28 15:00:00 25.6 10 Oeste 20 Oeste 0 -- -- 54
2019-10-28 14:00:00 25.6 12 Oeste 21 Oeste 0 -- -- 55
2019-10-28 13:00:00 25.4 11 Oeste 18 Oeste 0 -- -- 52
2019-10-28 12:00:00 25.3 11 Oeste 16 Oeste 0 -- -- 54
2019-10-28 11:00:00 24.3 6 Oeste 14 Oeste 0 -- -- 51
2019-10-28 10:00:00 24.3 3 Oeste 8 Sudeste 0 -- -- 55
2019-10-28 09:00:00 20.4 2 Oeste 8 Sudeste 0 -- -- 73
2019-10-28 08:00:00 17 5 Sudeste 10 Sudeste 0 -- -- 77
2019-10-28 07:00:00 16.7 5 Sudeste 10 Sudeste 0 -- -- 77
2019-10-28 06:00:00 17.3 5 Sudeste 12 Sudeste 0 -- -- 75
2019-10-28 05:00:00 16.7 6 Sudeste 12 Sudeste 0 -- -- 78
2019-10-28 04:00:00 17.2 4 Sudeste 9 Sudeste 0 -- -- 79
2019-10-28 03:00:00 17.7 7 Este 12 Sudeste 0 -- -- 77
2019-10-28 02:00:00 18 5 Este 14 Sudeste 0 -- -- 77
2019-10-28 01:00:00 18.1 4 Sudeste 10 Este 0 -- -- 78
2019-10-28 00:00:00 18.1 4 Este 10 Este 0 -- -- 77
2019-10-27 23:00:00 18.4 4 Sudeste 8 Este 0 -- -- 79
2019-10-27 22:00:00 18.9 7 Sudeste 11 Sudeste 0 -- -- 76
2019-10-27 21:00:00 18.5 2 Este 8 Este 0 -- -- 80
2019-10-27 20:00:00 19.4 3 Sudeste 10 Este 0 -- -- 77
2019-10-27 19:00:00 21.4 3 Sur 9 Noroeste 0 -- -- 73
2019-10-27 18:00:00 23.7 6 Oeste 22 Oeste 0 -- -- 64
2019-10-27 17:00:00 24.6 14 Oeste 24 Oeste 0 -- -- 60
2019-10-27 16:00:00 24.5 11 Oeste 18 Oeste 0 -- -- 62
2019-10-27 15:00:00 24.3 5 Nordeste 16 Oeste 0 -- -- 60
2019-10-27 14:00:00 22.3 8 Noroeste 24 Oeste 0 -- -- 73
2019-10-27 13:00:00 22.7 6 Noroeste 22 Oeste 0 -- -- 70
2019-10-27 12:00:00 22.9 13 Oeste 24 Oeste 0 -- -- 74
2019-10-27 11:00:00 23.3 10 Oeste 20 Noroeste 0 -- -- 71
2019-10-27 10:00:00 24.1 3 Norte 9 Sudeste 0 -- -- 70
2019-10-27 09:00:00 19.8 5 Este 10 Este 0 -- -- 85
2019-10-27 08:00:00 18 5 Sudeste 8 Sudeste 0 -- -- 90
2019-10-27 07:00:00 18.1 3 Sudeste 12 Sudeste 0 -- -- 88
2019-10-27 06:00:00 18.2 3 Este 13 Sudeste 0 -- -- 88
2019-10-27 05:00:00 18.8 8 Sudeste 13 Sudeste 0 -- -- 85
2019-10-27 04:00:00 18.8 8 Sudeste 12 Sudeste 0 -- -- 87
2019-10-27 03:00:00 18.7 5 Este 9 Este 0 -- -- 90
2019-10-27 02:00:00 18.9 6 Sudeste 10 Sur 0 -- -- 90
2019-10-27 01:00:00 19.5 3 Este 22 Sur 0.2 -- -- 88
2019-10-27 00:00:00 19.1 3 Este 9 Sudeste 0 -- -- 91
2019-10-26 23:00:00 19.2 4 Este 10 Sudeste 0 -- -- 90
2019-10-26 22:00:00 19.2 6 Sudeste 13 Este 0 -- -- 89
2019-10-26 21:00:00 19.9 7 Sudeste 15 Nordeste 0 -- -- 86
2019-10-26 20:00:00 19.3 8 Nordeste 15 Nordeste 0 -- -- 90
2019-10-26 19:00:00 18.6 6 Este 27 Sur 5 -- -- 92
2019-10-26 18:00:00 18.8 7 Este 16 Oeste 10 -- -- 89
2019-10-26 17:00:00 20.7 7 Oeste 17 Oeste 0 -- -- 75
2019-10-26 16:00:00 21 9 Noroeste 17 Noroeste 0 -- -- 72
2019-10-26 15:00:00 21.3 11 Noroeste 19 Oeste 0 -- -- 74
2019-10-26 14:00:00 21.3 9 Oeste 18 Noroeste 0 -- -- 84
2019-10-26 13:00:00 20.3 9 Oeste 21 Noroeste 0.2 -- -- 89
2019-10-26 12:00:00 20.1 14 Oeste 25 Oeste 0 -- -- 89
2019-10-26 11:00:00 20 0 Calma 13 Norte 0 -- -- 94
2019-10-26 10:00:00 18.4 4 Noroeste 14 Sudoeste 1.6 -- -- 94
2019-10-26 09:00:00 18 3 Norte 32 Oeste 3.4 -- -- 95
2019-10-26 08:00:00 16.9 15 Norte 26 Noroeste 5 -- -- 94
2019-10-26 07:00:00 17.3 8 Oeste 39 Oeste 1 -- -- 92
2019-10-26 06:00:00 17.1 6 Oeste 18 Sur 1.2 -- -- 92
2019-10-26 05:00:00 16 9 Sudeste 24 Este 4.4 -- -- 91
2019-10-26 04:00:00 14.8 13 Este 51 Noroeste 4.2 -- -- 75
2019-10-26 03:00:00 18.3 4 Sudeste 10 Este 0 -- -- 39
2019-10-26 02:00:00 17.9 6 Sudeste 8 Este 0 -- -- 33
2019-10-26 01:00:00 17.4 3 Sudeste 10 Sudeste 0 -- -- 37
2019-10-26 00:00:00 17.3 4 Sudeste 8 Este 0 -- -- 39
2019-10-25 23:00:00 17.1 5 Este 9 Este 0 -- -- 42
2019-10-25 22:00:00 17.6 3 Este 8 Este 0 -- -- 43
2019-10-25 21:00:00 18.9 3 Este 10 Este 0 -- -- 43
2019-10-25 20:00:00 21.1 3 Sudoeste 15 Noroeste 0 -- -- 39
2019-10-25 19:00:00 22.8 10 Oeste 20 Noroeste 0 -- -- 32
2019-10-25 18:00:00 23.8 9 Oeste 19 Noroeste 0 -- -- 32
2019-10-25 17:00:00 23.9 9 Noroeste 20 Noroeste 0 -- -- 33
2019-10-25 16:00:00 23.5 9 Noroeste 22 Noroeste 0 -- -- 35
2019-10-25 15:00:00 23.8 10 Noroeste 24 Oeste 0 -- -- 36
2019-10-25 14:00:00 24 10 Oeste 26 Noroeste 0 -- -- 36
2019-10-25 13:00:00 22.7 11 Noroeste 21 Norte 0 -- -- 38
2019-10-25 12:00:00 20.8 11 Noroeste 20 Noroeste 0 -- -- 43
2019-10-25 11:00:00 19.2 8 Noroeste 13 Noroeste 0 -- -- 48
2019-10-25 10:00:00 15.8 3 Norte 10 Nordeste 0 -- -- 56
2019-10-25 09:00:00 13.4 7 Este 10 Este 0 -- -- 59
2019-10-25 08:00:00 13.3 6 Este 12 Este 0 -- -- 53
2019-10-25 07:00:00 13 6 Este 12 Nordeste 0 -- -- 53
2019-10-25 06:00:00 12.9 5 Este 13 Nordeste 0 -- -- 50
2019-10-25 05:00:00 12.5 4 Sudeste 18 Sur 0 -- -- 56
2019-10-25 04:00:00 10.3 9 Sudeste 14 Sudeste 0 -- -- 81
2019-10-25 03:00:00 10.9 3 Este 12 Este 0 -- -- 81
2019-10-25 02:00:00 10.5 6 Este 10 Este 0 -- -- 85
2019-10-25 01:00:00 10.5 4 Este 9 Este 0 -- -- 84
2019-10-25 00:00:00 11 6 Este 12 Nordeste 0 -- -- 82
2019-10-24 23:00:00 11.6 3 Este 8 Este 0 -- -- 82
2019-10-24 22:00:00 11.9 5 Este 10 Este 0 -- -- 84
2019-10-24 21:00:00 13.3 4 Este 6 Oeste 0 -- -- 78
2019-10-24 20:00:00 16.2 4 Oeste 14 Oeste 0 -- -- 72
2019-10-24 19:00:00 17.8 9 Oeste 13 Oeste 0 -- -- 59
2019-10-24 18:00:00 17.3 9 Oeste 20 Oeste 0 -- -- 61
2019-10-24 17:00:00 18.1 16 Oeste 30 Oeste 0 -- -- 57
2019-10-24 16:00:00 19 9 Oeste 24 Oeste 0 -- -- 60
2019-10-24 15:00:00 19.3 13 Oeste 26 Oeste 0 -- -- 60
2019-10-24 14:00:00 19.6 8 Oeste 22 Oeste 0 -- -- 60
2019-10-24 13:00:00 17.8 10 Oeste 28 Este 0 -- -- 65
2019-10-24 12:00:00 16.8 14 Sudeste 23 Sudeste 0 -- -- 67
2019-10-24 11:00:00 15.5 12 Sudeste 20 Este 0 -- -- 69
2019-10-24 10:00:00 14 2 Este 14 Este 0 -- -- 72
2019-10-24 09:00:00 13.2 6 Este 27 Este 0 -- -- 70
2019-10-24 08:00:00 13.2 15 Este 30 Nordeste 0 -- -- 76
2019-10-24 07:00:00 13.2 7 Nordeste 30 Nordeste 0 -- -- 73
2019-10-24 06:00:00 13.6 9 Este 31 Este 0 -- -- 79
2019-10-24 05:00:00 13.5 11 Nordeste 29 Este 0 -- -- 79
2019-10-24 04:00:00 13.4 15 Este 29 Este 0 -- -- 82
2019-10-24 03:00:00 13.4 8 Sudeste 24 Nordeste 0 -- -- 78
2019-10-24 02:00:00 12.5 6 Nordeste 27 Nordeste 0 -- -- 77
2019-10-24 01:00:00 13.6 6 Este 28 Este 0 -- -- 78
2019-10-24 00:00:00 13.7 12 Este 30 Este 0 -- -- 78
2019-10-23 23:00:00 13.8 10 Este 28 Este 0 -- -- 80
2019-10-23 22:00:00 14 10 Este 28 Este 0 -- -- 74
2019-10-23 21:00:00 14.1 12 Sudeste 28 Sudeste 0 -- -- 77
2019-10-23 20:00:00 13.9 14 Este 31 Sudeste 0 -- -- 75
2019-10-23 19:00:00 14.4 9 Este 23 Este 0 -- -- 74
2019-10-23 18:00:00 13.8 9 Este 19 Este 0 -- -- 81
2019-10-23 17:00:00 14.9 10 Sudeste 22 Sudeste 0 -- -- 78
2019-10-23 16:00:00 16.1 4 Sudoeste 24 Este 0 -- -- 75
2019-10-23 15:00:00 15.4 10 Este 22 Este 0 -- -- 78
2019-10-23 14:00:00 15.7 5 Este 29 Este 0 -- -- 69
2019-10-23 13:00:00 15 8 Este 24 Sudeste 0 -- -- 72
2019-10-23 12:00:00 15.1 6 Sudeste 24 Sudeste 0 -- -- 71
2019-10-23 11:00:00 13.9 7 Sudeste 16 Nordeste 0 -- -- 76
2019-10-23 10:00:00 13.6 6 Sudeste 13 Este 0 -- -- 69
2019-10-23 09:00:00 12.5 4 Este 17 Sudeste 0 -- -- 73
2019-10-23 08:00:00 12.9 7 Sudeste 24 Este 0 -- -- 73
2019-10-23 07:00:00 10.8 4 Este 10 Este 0 -- -- 79
2019-10-23 06:00:00 11.5 2 Nordeste 18 Este 0 -- -- 75
2019-10-23 05:00:00 11 5 Sudeste 13 Este 0 -- -- 76
2019-10-23 04:00:00 10.9 7 Este 14 Sudeste 0 -- -- 75
2019-10-23 03:00:00 12.4 7 Este 22 Este 0 -- -- 69
2019-10-23 02:00:00 13 6 Este 21 Sudeste 0 -- -- 69
2019-10-23 01:00:00 13.3 12 Este 22 Sudeste 0 -- -- 70
2019-10-23 00:00:00 13.6 11 Este 33 Nordeste 0 -- -- 64
2019-10-22 23:00:00 13.4 13 Este 24 Este 0 -- -- 67
2019-10-22 22:00:00 13.4 7 Este 19 Este 0 -- -- 65
2019-10-22 21:00:00 13.3 8 Este 24 Este 0 -- -- 67
2019-10-22 20:00:00 13.5 14 Este 41 Este 0 -- -- 69
2019-10-22 19:00:00 14 18 Este 30 Sudeste 0 -- -- 73
2019-10-22 18:00:00 14.2 17 Este 28 Este 0 -- -- 77
2019-10-22 17:00:00 14.4 12 Este 27 Este 0 -- -- 78
2019-10-22 16:00:00 13.6 15 Este 32 Este 0.2 -- -- 80
2019-10-22 15:00:00 14.7 6 Sur 23 Sudeste 0 -- -- 81
2019-10-22 14:00:00 16.1 4 Sudoeste 26 Este 0 -- -- 67
2019-10-22 13:00:00 17.1 14 Este 38 Este 0 -- -- 61
2019-10-22 12:00:00 16.3 25 Este 40 Este 0 -- -- 57
2019-10-22 11:00:00 15.4 18 Este 30 Este 0 -- -- 56
2019-10-22 10:00:00 14.1 16 Este 29 Este 0 -- -- 61
2019-10-22 09:00:00 12.4 14 Este 33 Nordeste 0 -- -- 67
2019-10-22 08:00:00 12.3 14 Este 29 Este 0 -- -- 63
2019-10-22 07:00:00 12.8 17 Este 36 Sudeste 0 -- -- 71
2019-10-22 06:00:00 11.7 6 Este 24 Este 0 -- -- 69
2019-10-22 05:00:00 12.8 13 Este 33 Este 0 -- -- 75
2019-10-22 04:00:00 13 17 Este 35 Este 0 -- -- 72
2019-10-22 03:00:00 13.3 17 Este 36 Este 0 -- -- 67
2019-10-22 02:00:00 13.4 23 Este 43 Este 0 -- -- 62
2019-10-22 01:00:00 13.4 20 Este 45 Este 0 -- -- 58
2019-10-22 00:00:00 13.8 26 Este 48 Este 0 -- -- 61
2019-10-21 23:00:00 13.8 24 Este 42 Este 0 -- -- 56
2019-10-21 22:00:00 13.6 22 Este 40 Este 0 -- -- 57
2019-10-21 21:00:00 13.9 19 Este 43 Este 0 -- -- 68
2019-10-21 20:00:00 14 22 Este 38 Este 0 -- -- 62
2019-10-21 19:00:00 14.6 22 Este 44 Sudeste 0 -- -- 71
2019-10-21 18:00:00 15.4 18 Este 37 Este 0 -- -- 72
2019-10-21 17:00:00 15.9 20 Este 44 Sudeste 0 -- -- 73
2019-10-21 16:00:00 17.3 26 Este 49 Este 0 -- -- 61
2019-10-21 15:00:00 16.6 23 Este 44 Este 0.2 -- -- 71
2019-10-21 14:00:00 15.1 15 Sudeste 40 Este 0.4 -- -- 80
2019-10-21 13:00:00 17.4 25 Este 42 Este 0 -- -- 65
2019-10-21 12:00:00 14.7 22 Este 38 Este 0 -- -- 71
2019-10-21 11:00:00 15.5 23 Este 46 Este 0 -- -- 65
2019-10-21 10:00:00 14.7 24 Este 44 Este 0 -- -- 67
2019-10-21 09:00:00 12.9 25 Este 46 Este 0 -- -- 78
2019-10-21 08:00:00 13 25 Este 43 Este 0 -- -- 75
2019-10-21 07:00:00 12.9 23 Este 46 Este 0 -- -- 75
2019-10-21 06:00:00 13 23 Este 41 Este 0 -- -- 73
2019-10-21 05:00:00 13.2 22 Este 44 Este 0 -- -- 77
2019-10-21 04:00:00 13.3 24 Este 42 Este 0 -- -- 79
2019-10-21 03:00:00 13.8 23 Este 37 Sudeste 0 -- -- 83
2019-10-21 02:00:00 13.5 19 Este 48 Este 0 -- -- 85
2019-10-21 01:00:00 13.4 23 Este 46 Este 0 -- -- 81
2019-10-21 00:00:00 13.8 23 Este 43 Este 0 -- -- 90
2019-10-20 23:00:00 14 18 Este 39 Este 0 -- -- 90
2019-10-20 22:00:00 14.7 14 Este 41 Este 0.6 -- -- 89
2019-10-20 21:00:00 15.4 16 Este 32 Este 0.2 -- -- 90
2019-10-20 20:00:00 14.8 13 Este 50 Este 0 -- -- 91
2019-10-20 19:00:00 16.2 19 Este 35 Este 0.4 -- -- 86
2019-10-20 18:00:00 17 17 Este 36 Este 0 -- -- 87
2019-10-20 17:00:00 18.8 15 Este 35 Este 0.2 -- -- 78
2019-10-20 16:00:00 18.4 16 Este 36 Este 0 -- -- 86
2019-10-20 15:00:00 18.5 11 Este 24 Este 0.4 -- -- 87
2019-10-20 14:00:00 18.8 6 Este 33 Sudeste 0.4 -- -- 81
2019-10-20 13:00:00 19.5 14 Este 31 Este 0 -- -- 85
2019-10-20 12:00:00 18.8 13 Este 27 Este 0 -- -- 81
2019-10-20 11:00:00 19.7 7 Sudoeste 23 Este 0 -- -- 72
2019-10-20 10:00:00 16.7 2 Sudeste 8 Este 0 -- -- 77
2019-10-20 09:00:00 11.4 4 Este 9 Este 0 -- -- 89
2019-10-20 08:00:00 11.5 3 Sudeste 12 Sudeste 0 -- -- 89
2019-10-20 07:00:00 11.7 3 Este 9 Sudeste 0 -- -- 89
2019-10-20 06:00:00 11.5 5 Este 9 Sudeste 0 -- -- 88
2019-10-20 05:00:00 11.8 7 Este 10 Este 0 -- -- 89
2019-10-20 04:00:00 11.8 3 Este 9 Nordeste 0 -- -- 90
2019-10-20 03:00:00 12.2 3 Sudeste 8 Este 0 -- -- 89
2019-10-20 02:00:00 12.7 5 Este 8 Este 0 -- -- 88
2019-10-20 01:00:00 13.5 3 Este 6 Nordeste 0 -- -- 85
2019-10-20 00:00:00 14.9 3 Este 8 Este 0 -- -- 81
2019-10-19 23:00:00 16.8 3 Oeste 8 Oeste 0 -- -- 85
2019-10-19 22:00:00 17 7 Oeste 9 Oeste 0 -- -- 84
2019-10-19 21:00:00 17.3 2 Oeste 10 Oeste 0 -- -- 82
2019-10-19 20:00:00 17.7 4 Oeste 16 Oeste 0 -- -- 80
2019-10-19 19:00:00 18.6 11 Oeste 16 Oeste 0 -- -- 77
2019-10-19 18:00:00 19.6 9 Oeste 21 Oeste 0 -- -- 73
2019-10-19 17:00:00 20.3 13 Oeste 30 Oeste 0 -- -- 70
2019-10-19 16:00:00 20.7 10 Oeste 27 Oeste 0 -- -- 67
2019-10-19 15:00:00 20.7 9 Oeste 26 Oeste 0 -- -- 65
2019-10-19 14:00:00 20.6 12 Oeste 29 Sudeste 0 -- -- 65
2019-10-19 13:00:00 20.3 4 Noroeste 21 Este 0 -- -- 66
2019-10-19 12:00:00 20 9 Sudeste 24 Este 0 -- -- 70
2019-10-19 11:00:00 18.3 6 Oeste 13 Oeste 0 -- -- 67
2019-10-19 10:00:00 14.6 3 Este 8 Nordeste 0 -- -- 80
2019-10-19 09:00:00 9.2 5 Sudeste 10 Este 0 -- -- 90
2019-10-19 08:00:00 8.7 5 Este 10 Este 0 -- -- 89
2019-10-19 07:00:00 9.1 3 Este 9 Este 0 -- -- 89
2019-10-19 06:00:00 9.4 4 Este 9 Nordeste 0 -- -- 89
2019-10-19 05:00:00 10.4 2 Este 9 Este 0 -- -- 89
2019-10-19 04:00:00 10.5 4 Este 8 Este 0 -- -- 90
2019-10-19 03:00:00 10.7 4 Este 7 Este 0 -- -- 89
2019-10-19 02:00:00 10.7 3 Nordeste 7 Este 0 -- -- 82
2019-10-19 01:00:00 11.7 4 Este 7 Este 0 -- -- 89
2019-10-19 00:00:00 11.2 5 Este 6 Este 0 -- -- 86
2019-10-18 23:00:00 12.5 0 Calma 8 Este 0 -- -- 88
2019-10-18 22:00:00 13.5 2 Nordeste 8 Oeste 0 -- -- 84
2019-10-18 21:00:00 14.8 5 Este 12 Este 0 -- -- 78
2019-10-18 20:00:00 16.1 2 Nordeste 22 Sudeste 0 -- -- 82
2019-10-18 19:00:00 18.2 12 Sudeste 21 Sudeste 0 -- -- 64
2019-10-18 18:00:00 19.9 7 Oeste 23 Oeste 0 -- -- 68
2019-10-18 17:00:00 19.7 10 Oeste 20 Oeste 0 -- -- 67
2019-10-18 16:00:00 19.6 12 Oeste 22 Oeste 0 -- -- 68
2019-10-18 15:00:00 19.4 13 Oeste 24 Oeste 0 -- -- 68
2019-10-18 14:00:00 19.5 11 Oeste 21 Oeste 0 -- -- 68
2019-10-18 13:00:00 19.2 12 Oeste 23 Oeste 0 -- -- 67
2019-10-18 12:00:00 18.9 11 Oeste 19 Oeste 0 -- -- 66
2019-10-18 11:00:00 17.7 3 Noroeste 5 Oeste 0 -- -- 69
2019-10-18 10:00:00 13.4 3 Este 6 Este 0 -- -- 84
2019-10-18 09:00:00 9.8 4 Este 8 Sudeste 0 -- -- 85
2019-10-18 08:00:00 9.1 4 Este 10 Este 0 -- -- 86
2019-10-18 07:00:00 9.2 3 Este 6 Este 0 -- -- 88
2019-10-18 06:00:00 9 5 Este 7 Este 0 -- -- 86
2019-10-18 05:00:00 9.8 4 Este 9 Nordeste 0 -- -- 86
2019-10-18 04:00:00 10.3 3 Este 10 Nordeste 0 -- -- 84
2019-10-18 03:00:00 10.5 4 Sudeste 8 Este 0 -- -- 83
2019-10-18 02:00:00 11 4 Este 7 Este 0 -- -- 80
2019-10-18 01:00:00 12.2 4 Este 6 Este 0 -- -- 88
2019-10-18 00:00:00 13 4 Este 10 Este 0 -- -- 87